Time;durP1;ratioP1;P1;durP2;ratioP2;P2;SDS_P1;SDS_P2;PMS_P1;PMS_P2;Temp;Humidity;BMP_temperature;BMP_pressure;BME280_temperature;BME280_humidity;BME280_pressure;Samples;Min_cycle;Max_cycle;Signal;HPM_P1;HPM_P2
2022/09/06 00:01:37;;;;;;;10.63;5.70;;;;;;;20.46;100.00;100800.59;4990132;28;20201;-75
2022/09/06 00:04:05;;;;;;;6.00;5.05;;;;;;;20.52;100.00;100808.41;4990177;28;20224;-75
2022/09/06 00:06:32;;;;;;;6.32;5.50;;;;;;;20.34;100.00;100800.75;4990493;28;20206;-75
2022/09/06 00:08:59;;;;;;;5.75;5.25;;;;;;;20.31;100.00;100806.06;4990946;28;20693;-75
2022/09/06 00:11:26;;;;;;;6.32;5.18;;;;;;;20.30;100.00;100796.44;4990223;28;20252;-76
2022/09/06 00:13:53;;;;;;;7.50;5.38;;;;;;;20.27;100.00;100787.69;4990834;28;20206;-76
2022/09/06 00:16:22;;;;;;;6.80;5.22;;;;;;;20.19;100.00;100773.69;4956507;28;20197;-75
2022/09/06 00:18:49;;;;;;;6.25;5.45;;;;;;;20.09;100.00;100771.22;4990386;28;20205;-75
2022/09/06 00:21:19;;;;;;;7.40;5.53;;;;;;;20.30;100.00;100797.28;4990327;28;20238;-76
2022/09/06 00:23:46;;;;;;;8.30;5.30;;;;;;;20.17;100.00;100800.97;4990320;28;20205;-76
2022/09/06 00:26:14;;;;;;;6.40;5.80;;;;;;;20.12;100.00;100795.72;4958405;28;20201;-75
2022/09/06 00:28:41;;;;;;;8.13;5.82;;;;;;;20.04;100.00;100799.38;4993830;28;20206;-75
2022/09/06 00:31:09;;;;;;;8.70;5.18;;;;;;;19.80;100.00;100737.34;4959669;28;20608;-73
2022/09/06 00:33:36;;;;;;;5.88;5.43;;;;;;;19.86;100.00;100758.34;4993989;28;20257;-75
2022/09/06 00:36:03;;;;;;;10.32;6.20;;;;;;;19.90;100.00;100791.66;4994051;28;20202;-76
2022/09/06 00:38:31;;;;;;;6.88;5.18;;;;;;;19.94;100.00;100780.16;4994064;28;20202;-75
2022/09/06 00:40:58;;;;;;;6.30;5.70;;;;;;;19.84;100.00;100780.28;4994061;28;20198;-75
2022/09/06 00:43:25;;;;;;;7.85;5.57;;;;;;;19.78;100.00;100765.44;4994140;28;20228;-75
2022/09/06 00:45:53;;;;;;;9.93;5.70;;;;;;;19.84;100.00;100767.13;4993071;28;20205;-76
2022/09/06 00:48:21;;;;;;;7.97;5.65;;;;;;;19.85;100.00;100779.41;4993745;28;20201;-75
2022/09/06 00:50:51;;;;;;;8.38;5.55;;;;;;;19.86;100.00;100784.66;4993752;28;20197;-75
2022/09/06 00:53:19;;;;;;;5.43;4.93;;;;;;;19.80;100.00;100782.09;4993916;28;20221;-75
2022/09/06 00:55:48;;;;;;;8.20;4.90;;;;;;;19.67;100.00;100760.31;4993915;28;20205;-76
2022/09/06 00:58:15;;;;;;;5.35;4.72;;;;;;;19.59;100.00;100763.91;4993854;28;20248;-75
2022/09/06 01:00:43;;;;;;;6.57;5.30;;;;;;;19.64;100.00;100778.78;4991456;28;20229;-76
2022/09/06 01:03:11;;;;;;;8.00;5.07;;;;;;;19.70;100.00;100777.81;4993278;28;20213;-75
2022/09/06 01:05:48;;;;;;;7.35;5.20;;;;;;;19.80;100.00;100779.44;4993885;28;20208;-76
2022/09/06 01:08:26;;;;;;;10.13;5.65;;;;;;;19.76;100.00;100772.50;4993245;28;20226;-76
2022/09/06 01:11:18;;;;;;;6.15;4.63;;;;;;;19.69;100.00;100766.41;4993399;28;20213;-75
2022/09/06 01:13:53;;;;;;;7.60;5.30;;;;;;;19.51;100.00;100765.78;4993518;28;20576;-74
2022/09/06 01:16:30;;;;;;;7.65;5.40;;;;;;;19.59;100.00;100764.78;4959129;28;20201;-74
2022/09/06 01:19:27;;;;;;;6.40;4.65;;;;;;;19.54;100.00;100761.34;4993385;28;20205;-75
2022/09/06 01:22:02;;;;;;;5.38;3.97;;;;;;;19.43;100.00;100772.84;4992981;28;20584;-75
2022/09/06 01:24:56;;;;;;;4.22;3.83;;;;;;;19.55;100.00;100788.53;4958564;28;20212;-75
2022/09/06 01:28:04;;;;;;;3.20;3.00;;;;;;;19.60;100.00;100810.38;4992627;28;20213;-75
2022/09/06 01:30:36;;;;;;;3.33;3.13;;;;;;;19.72;100.00;100818.16;4992612;28;20664;-75
2022/09/06 01:33:10;;;;;;;3.60;3.30;;;;;;;19.61;100.00;100789.34;4992806;28;20228;-74
2022/09/06 01:35:44;;;;;;;3.33;3.00;;;;;;;19.67;100.00;100801.53;4992952;28;20197;-75
2022/09/06 01:38:10;;;;;;;3.55;3.25;;;;;;;19.55;100.00;100785.91;4991273;28;20206;-74
2022/09/06 01:40:37;;;;;;;3.63;3.30;;;;;;;19.65;100.00;100798.06;4992675;28;20694;-75
2022/09/06 01:43:08;;;;;;;4.03;3.10;;;;;;;19.68;100.00;100779.59;4992786;28;20198;-75
2022/09/06 01:45:46;;;;;;;4.45;3.60;;;;;;;19.79;100.00;100794.41;4993204;28;20655;-76
2022/09/06 01:48:23;;;;;;;3.17;2.90;;;;;;;19.77;100.00;100790.91;4957606;28;20198;-76
2022/09/06 01:50:58;;;;;;;3.25;2.97;;;;;;;19.84;100.00;100791.69;4992070;28;20227;-75
2022/09/06 01:53:53;;;;;;;3.65;3.30;;;;;;;19.85;100.00;100792.56;4992618;28;20216;-75
2022/09/06 01:56:31;;;;;;;3.80;3.17;;;;;;;19.83;100.00;100784.72;4992714;28;20286;-75
2022/09/06 01:59:15;;;;;;;4.55;3.40;;;;;;;19.59;100.00;100748.13;4958077;28;20201;-75
2022/09/06 02:01:54;;;;;;;5.70;3.58;;;;;;;19.69;100.00;100760.31;4984990;28;20225;-75
2022/09/06 02:04:26;;;;;;;3.45;3.15;;;;;;;19.62;100.00;100777.06;4992392;28;20208;-76
2022/09/06 02:06:59;;;;;;;3.90;3.53;;;;;;;19.63;100.00;100773.50;4992038;28;20204;-75
2022/09/06 02:09:32;;;;;;;3.58;3.28;;;;;;;19.67;100.00;100772.59;4991782;28;20204;-75
2022/09/06 02:12:02;;;;;;;4.90;3.38;;;;;;;19.61;100.00;100767.41;4992060;28;20205;-75
2022/09/06 02:14:33;;;;;;;4.57;3.53;;;;;;;19.44;100.00;100753.56;4992282;28;20205;-74
2022/09/06 02:17:04;;;;;;;6.57;3.83;;;;;;;19.47;100.00;100759.66;4992021;28;20193;-75
2022/09/06 02:19:35;;;;;;;4.82;3.30;;;;;;;19.40;100.00;100744.81;4991252;28;20210;-75
2022/09/06 02:22:07;;;;;;;4.35;4.00;;;;;;;19.46;100.00;100767.56;4957137;28;20276;-75
2022/09/06 02:24:38;;;;;;;5.13;3.40;;;;;;;19.49;100.00;100768.41;4972975;28;20204;-75
2022/09/06 02:27:05;;;;;;;4.50;3.53;;;;;;;19.49;100.00;100767.53;4980357;28;20677;-75
2022/09/06 02:29:33;;;;;;;3.03;2.83;;;;;;;19.50;100.00;100769.28;4992019;28;20572;-75
2022/09/06 02:32:07;;;;;;;3.33;3.03;;;;;;;19.57;100.00;100779.72;4991725;28;20205;-75
2022/09/06 02:34:37;;;;;;;3.88;3.45;;;;;;;19.31;100.00;100735.25;4991494;28;20705;-74
2022/09/06 02:37:04;;;;;;;4.50;3.40;;;;;;;19.59;100.00;100780.56;4991578;28;20204;-75
2022/09/06 02:39:31;;;;;;;4.07;3.40;;;;;;;19.55;100.00;100783.28;4956522;28;20564;-74
2022/09/06 02:41:59;;;;;;;4.30;3.22;;;;;;;19.43;100.00;100767.59;4990787;28;20202;-74
2022/09/06 02:44:26;;;;;;;3.97;3.55;;;;;;;19.50;100.00;100779.81;4985945;28;20197;-75
2022/09/06 02:46:53;;;;;;;7.22;3.60;;;;;;;19.49;100.00;100778.06;4991733;28;20213;-75
2022/09/06 02:49:21;;;;;;;3.80;3.40;;;;;;;19.55;100.00;100768.31;4990726;28;20198;-75
2022/09/06 02:51:48;;;;;;;3.47;3.28;;;;;;;19.54;100.00;100787.66;4991434;28;20201;-75
2022/09/06 02:54:14;;;;;;;4.93;3.47;;;;;;;19.49;100.00;100768.41;4991012;28;20237;-74
2022/09/06 02:56:42;;;;;;;3.75;3.40;;;;;;;19.63;100.00;100787.53;4991226;28;20762;-75
2022/09/06 02:59:08;;;;;;;5.35;3.40;;;;;;;19.67;100.00;100785.75;4991114;28;20201;-75
2022/09/06 03:01:35;;;;;;;3.60;3.30;;;;;;;19.70;100.00;100793.59;4991404;28;20854;-76
2022/09/06 03:04:02;;;;;;;4.80;3.33;;;;;;;19.80;100.00;100798.75;4991130;28;20206;-75
2022/09/06 03:06:31;;;;;;;5.82;3.60;;;;;;;19.84;100.00;100798.72;4991516;28;20202;-75
2022/09/06 03:08:58;;;;;;;4.38;3.42;;;;;;;19.80;100.00;100795.25;4991298;28;20233;-75
2022/09/06 03:11:26;;;;;;;3.38;3.17;;;;;;;19.86;100.00;100789.06;4991256;28;20247;-75
2022/09/06 03:13:52;;;;;;;3.55;3.35;;;;;;;19.93;100.00;100796.88;4991240;28;20217;-74
2022/09/06 03:16:19;;;;;;;5.88;3.17;;;;;;;20.02;100.00;100790.59;4991536;28;20568;-74
2022/09/06 03:18:46;;;;;;;4.60;3.25;;;;;;;19.63;100.00;100713.00;4990204;28;20654;-75
2022/09/06 03:21:14;;;;;;;5.35;3.53;;;;;;;19.92;100.00;100760.91;4990880;28;20197;-74
2022/09/06 03:23:42;;;;;;;5.97;3.03;;;;;;;20.13;100.00;100763.25;4991716;28;20287;-75
2022/09/06 03:26:09;;;;;;;4.25;3.28;;;;;;;20.31;100.00;100803.44;4991301;28;20209;-75
2022/09/06 03:28:36;;;;;;;4.43;3.17;;;;;;;20.27;100.00;100802.56;4991278;28;20207;-75
2022/09/06 03:31:03;;;;;;;3.47;3.22;;;;;;;20.21;100.00;100798.28;4990990;28;20202;-74
2022/09/06 03:33:30;;;;;;;4.32;3.38;;;;;;;20.27;100.00;100803.47;4953637;28;20245;-74
2022/09/06 03:35:58;;;;;;;3.97;3.60;;;;;;;20.27;100.00;100802.56;4986258;28;20208;-75
2022/09/06 03:38:27;;;;;;;4.20;3.80;;;;;;;20.00;100.00;100809.06;4990832;28;20212;-75
2022/09/06 03:40:55;;;;;;;4.88;3.53;;;;;;;19.90;100.00;100791.66;4956853;28;20198;-77
2022/09/06 03:43:24;;;;;;;5.28;3.70;;;;;;;19.93;100.00;100810.03;4991173;28;20213;-76
2022/09/06 03:45:53;;;;;;;4.78;3.63;;;;;;;19.35;100.00;100728.19;4990501;28;20197;-77
2022/09/06 03:48:21;;;;;;;3.72;3.40;;;;;;;19.91;100.00;100814.44;4991164;28;20193;-76
2022/09/06 03:50:50;;;;;;;4.38;3.63;;;;;;;19.99;100.00;100812.59;4991017;28;20201;-76
2022/09/06 03:53:18;;;;;;;5.70;3.70;;;;;;;20.04;100.00;100809.91;4988980;28;20602;-76
2022/09/06 03:55:46;;;;;;;4.88;3.67;;;;;;;19.96;100.00;100788.06;4990731;28;20212;-76
2022/09/06 03:58:15;;;;;;;9.70;4.10;;;;;;;20.28;100.00;100817.53;4991206;28;20206;-76
2022/09/06 04:00:42;;;;;;;6.22;3.50;;;;;;;20.19;100.00;100805.31;4991906;28;20201;-76
2022/09/06 04:03:09;;;;;;;5.43;3.50;;;;;;;20.26;100.00;100828.03;4995021;28;20194;-76
2022/09/06 04:05:36;;;;;;;4.78;3.50;;;;;;;20.09;100.00;100785.25;4994673;28;20646;-77
2022/09/06 04:08:04;;;;;;;4.22;3.60;;;;;;;20.24;100.00;100834.22;4994261;28;20605;-76
2022/09/06 04:10:31;;;;;;;4.03;3.67;;;;;;;20.30;100.00;100842.06;4957185;28;20394;-76
2022/09/06 04:12:58;;;;;;;4.20;3.70;;;;;;;20.21;100.00;100837.78;4965700;28;20200;-75
2022/09/06 04:15:26;;;;;;;7.00;4.40;;;;;;;19.84;100.00;100754.84;4994139;28;20205;-76
2022/09/06 04:17:53;;;;;;;5.50;3.58;;;;;;;20.29;100.00;100845.63;4993960;28;20202;-76
2022/09/06 04:20:20;;;;;;;7.55;3.70;;;;;;;20.33;100.00;100828.00;4993727;28;20202;-76
2022/09/06 04:22:46;;;;;;;4.93;3.17;;;;;;;20.26;100.00;100833.31;4993845;28;20209;-76
2022/09/06 04:25:13;;;;;;;4.97;4.03;;;;;;;20.44;100.00;100836.66;4994218;28;20873;-77
2022/09/06 04:27:40;;;;;;;8.13;3.90;;;;;;;20.42;100.00;100807.69;4994090;28;20225;-76
2022/09/06 04:30:08;;;;;;;7.75;3.65;;;;;;;20.43;100.00;100798.91;4994198;28;20202;-76
2022/09/06 04:32:36;;;;;;;6.70;4.07;;;;;;;20.68;100.00;100820.50;4994108;28;20208;-76
2022/09/06 04:35:04;;;;;;;4.95;3.50;;;;;;;20.67;100.00;100824.03;4993217;28;20225;-76
2022/09/06 04:37:31;;;;;;;4.90;3.35;;;;;;;20.59;100.00;100825.88;4994187;28;20209;-75
2022/09/06 04:39:58;;;;;;;6.07;3.92;;;;;;;20.60;100.00;100830.28;4994077;28;20194;-76
2022/09/06 04:42:25;;;;;;;4.78;4.28;;;;;;;20.61;100.00;100832.03;4993398;28;20205;-76
2022/09/06 04:44:52;;;;;;;8.55;5.70;;;;;;;20.40;100.00;100808.59;4993039;28;20202;-76
2022/09/06 04:47:19;;;;;;;10.70;6.50;;;;;;;20.56;100.00;100804.84;4956387;28;20205;-75
2022/09/06 04:49:48;;;;;;;7.70;5.65;;;;;;;20.57;100.00;100809.22;4986447;28;20720;-75
2022/09/06 04:52:15;;;;;;;12.80;6.35;;;;;;;20.44;100.00;100805.03;4959634;28;20584;-74
2022/09/06 04:54:42;;;;;;;9.93;5.45;;;;;;;20.32;100.00;100806.06;4993022;28;20312;-75
2022/09/06 04:57:09;;;;;;;7.32;5.30;;;;;;;20.38;100.00;100810.38;4993922;28;20588;-75
2022/09/06 04:59:36;;;;;;;8.70;5.80;;;;;;;20.47;100.00;100813.78;4993780;28;20205;-73
2022/09/06 05:02:03;;;;;;;7.47;6.00;;;;;;;20.57;100.00;100811.88;4992738;28;20202;-78
2022/09/06 05:04:30;;;;;;;8.70;6.38;;;;;;;20.64;100.00;100809.13;4993437;28;20214;-76
2022/09/06 05:07:03;;;;;;;6.93;6.22;;;;;;;20.84;100.00;100805.31;4993012;28;20213;-76
2022/09/06 05:09:30;;;;;;;28.13;16.73;;;;;;;20.73;100.00;100789.66;4993795;28;20198;-75
2022/09/06 05:11:58;;;;;;;12.40;8.55;;;;;;;20.86;100.00;100820.22;4993413;28;20201;-76
2022/09/06 05:14:25;;;;;;;8.65;7.75;;;;;;;20.91;100.00;100815.75;4993379;28;20316;-76
2022/09/06 05:16:52;;;;;;;9.70;6.88;;;;;;;20.89;100.00;100820.19;4992942;28;20205;-76
2022/09/06 05:19:19;;;;;;;7.75;6.13;;;;;;;20.84;100.00;100811.44;4990937;28;20209;-72
2022/09/06 05:21:46;;;;;;;6.03;5.53;;;;;;;20.90;100.00;100821.94;4987901;28;20201;-79
2022/09/06 05:24:14;;;;;;;6.22;5.63;;;;;;;20.97;100.00;100818.31;4992951;28;20705;-78
2022/09/06 05:26:41;;;;;;;10.55;6.53;;;;;;;20.88;100.00;100812.28;4993152;28;20209;-79
2022/09/06 05:29:08;;;;;;;7.00;4.82;;;;;;;20.96;100.00;100826.22;4993582;28;20209;-77
2022/09/06 05:31:35;;;;;;;5.93;4.50;;;;;;;20.99;100.00;100824.41;4974661;28;20603;-78
2022/09/06 05:34:02;;;;;;;8.65;4.90;;;;;;;21.01;100.00;100835.78;4992406;28;20225;-78
2022/09/06 05:36:30;;;;;;;7.78;5.05;;;;;;;20.97;100.00;100820.06;4993270;28;20205;-79
2022/09/06 05:38:58;;;;;;;6.82;4.57;;;;;;;20.97;100.00;100828.84;4993308;28;20202;-81
2022/09/06 05:41:26;;;;;;;5.63;3.75;;;;;;;20.78;100.00;100811.56;4995477;28;20206;-80
2022/09/06 05:43:53;;;;;;;4.55;3.95;;;;;;;20.81;100.00;100834.34;4985653;28;20216;-79
2022/09/06 05:46:21;;;;;;;6.72;3.90;;;;;;;20.31;100.00;100820.13;4992876;28;20205;-82
2022/09/06 05:48:53;;;;;;;4.03;3.72;;;;;;;20.66;100.00;100832.81;4992976;28;20212;-81
2022/09/06 05:51:20;;;;;;;9.77;5.30;;;;;;;20.63;100.00;100781.03;4992818;28;20678;-74
2022/09/06 05:53:47;;;;;;;8.18;3.70;;;;;;;21.01;100.00;100829.69;4987143;28;20237;-74
2022/09/06 05:56:15;;;;;;;5.32;3.90;;;;;;;21.08;100.00;100818.97;4992749;28;20202;-75
2022/09/06 05:58:43;;;;;;;4.97;3.83;;;;;;;20.89;100.00;100830.72;4992708;28;20213;-77
2022/09/06 06:01:16;;;;;;;3.80;3.40;;;;;;;20.89;100.00;100824.56;4992932;28;20228;-78
2022/09/06 06:03:50;;;;;;;4.43;3.75;;;;;;;21.01;100.00;100830.53;4992294;28;20341;-76
2022/09/06 06:06:17;;;;;;;4.20;3.10;;;;;;;21.11;100.00;100837.44;4991890;28;20205;-75
2022/09/06 06:08:43;;;;;;;4.50;2.92;;;;;;;21.37;100.00;100833.50;4991344;28;20229;-75
2022/09/06 06:11:11;;;;;;;4.03;3.55;;;;;;;21.52;100.00;100851.69;4991268;28;20214;-77
2022/09/06 06:13:38;;;;;;;10.38;3.83;;;;;;;21.46;100.00;100836.84;4991532;28;20267;-75
2022/09/06 06:16:07;;;;;;;5.45;3.20;;;;;;;21.51;100.00;100848.19;4991160;28;20674;-76
2022/09/06 06:18:34;;;;;;;5.03;3.83;;;;;;;21.24;100.00;100801.16;4991540;28;20682;-78
2022/09/06 06:21:12;;;;;;;4.45;3.60;;;;;;;21.64;100.00;100852.38;4991777;28;20221;-75
2022/09/06 06:23:40;;;;;;;3.53;3.20;;;;;;;21.45;100.00;100850.94;4991616;28;20680;-75
2022/09/06 06:26:07;;;;;;;3.85;3.05;;;;;;;21.49;100.00;100860.53;4992067;28;20210;-74
2022/09/06 06:28:35;;;;;;;4.68;3.00;;;;;;;21.46;100.00;100844.78;4992380;28;20220;-76
2022/09/06 06:31:02;;;;;;;4.43;3.22;;;;;;;21.68;100.00;100843.50;4992118;28;20260;-75
2022/09/06 06:33:31;;;;;;;4.78;2.80;;;;;;;22.06;100.00;100848.06;4991954;28;20700;-74
2022/09/06 06:36:02;;;;;;;4.20;2.90;;;;;;;22.65;100.00;100848.59;4991917;28;20212;-75
2022/09/06 06:38:34;;;;;;;2.88;2.67;;;;;;;22.91;94.91;100855.97;4992067;28;20213;-74
2022/09/06 06:41:01;;;;;;;3.55;3.10;;;;;;;22.72;93.10;100858.19;4990699;28;20696;-74
2022/09/06 06:43:28;;;;;;;7.28;3.20;;;;;;;22.88;92.18;100858.69;4991739;28;20597;-75
2022/09/06 06:45:55;;;;;;;6.30;3.58;;;;;;;22.93;93.22;100865.63;4991402;28;20276;-76
2022/09/06 06:48:22;;;;;;;5.13;3.40;;;;;;;23.09;89.48;100850.25;4985007;28;20201;-74
2022/09/06 06:50:50;;;;;;;32.67;15.35;;;;;;;22.72;92.53;100855.53;4989914;28;20205;-79
2022/09/06 06:53:18;;;;;;;3.72;3.42;;;;;;;22.89;92.96;100848.09;4991707;28;20212;-80
2022/09/06 06:55:48;;;;;;;7.85;3.80;;;;;;;23.10;91.37;100857.28;4985165;28;20319;-79
2022/09/06 06:58:16;;;;;;;4.22;3.35;;;;;;;22.38;95.54;100854.47;4989758;28;20198;-75
2022/09/06 07:00:42;;;;;;;10.82;3.90;;;;;;;22.46;97.93;100852.53;4992949;28;20208;-81
2022/09/06 07:03:10;;;;;;;4.15;3.17;;;;;;;22.60;96.39;100839.91;4966882;28;20193;-80
2022/09/06 07:05:39;;;;;;;3.85;3.55;;;;;;;22.70;95.96;100852.03;4990867;28;20217;-74
2022/09/06 07:08:07;;;;;;;5.80;3.60;;;;;;;22.73;97.21;100858.13;4990430;28;20643;-77
2022/09/06 07:10:34;;;;;;;5.03;3.33;;;;;;;22.75;98.94;100857.22;4987445;28;20210;-74
2022/09/06 07:13:01;;;;;;;4.82;3.75;;;;;;;23.28;93.42;100850.69;4956700;28;20216;-74
2022/09/06 07:15:28;;;;;;;8.55;3.63;;;;;;;23.07;93.60;100857.38;4989911;28;20237;-73
2022/09/06 07:17:55;;;;;;;8.57;3.40;;;;;;;23.14;89.55;100854.53;4991193;28;20216;-72
2022/09/06 07:20:22;;;;;;;10.02;3.17;;;;;;;22.96;92.44;100854.97;4991134;28;20201;-71
2022/09/06 07:22:59;;;;;;;3.58;3.22;;;;;;;23.37;90.67;100840.72;4991291;28;20206;-72
2022/09/06 07:25:27;;;;;;;4.13;3.67;;;;;;;23.52;87.62;100860.66;4991118;28;20209;-72
2022/09/06 07:28:00;;;;;;;7.00;3.95;;;;;;;23.76;87.03;100865.31;4990685;28;20677;-73
2022/09/06 07:30:27;;;;;;;180.70;107.13;;;;;;;23.70;87.76;100841.66;4991312;28;20744;-76
2022/09/06 07:32:54;;;;;;;9.23;6.72;;;;;;;23.56;86.08;100867.63;4953730;28;20213;-72
2022/09/06 07:35:20;;;;;;;3.72;3.30;;;;;;;23.60;88.10;100853.41;4990530;28;20229;-82
2022/09/06 07:37:55;;;;;;;6.10;3.67;;;;;;;24.12;85.89;100872.28;4995236;28;20213;-76
2022/09/06 07:40:22;;;;;;;11.75;7.07;;;;;;;23.84;87.49;100867.78;4944699;28;20220;-78
2022/09/06 07:42:50;;;;;;;12.40;7.05;;;;;;;23.93;88.51;100860.47;4994659;28;20220;-76
2022/09/06 07:45:17;;;;;;;3.30;3.00;;;;;;;24.03;84.94;100869.03;4975237;28;20205;-76
2022/09/06 07:47:44;;;;;;;7.25;3.40;;;;;;;23.83;85.39;100844.88;4994142;28;20197;-79
2022/09/06 07:50:11;;;;;;;3.47;2.97;;;;;;;24.23;81.93;100866.72;4994995;28;20202;-78
2022/09/06 07:52:38;;;;;;;3.80;2.90;;;;;;;24.17;83.40;100873.06;4995045;28;20229;-77
2022/09/06 07:55:06;;;;;;;5.32;2.90;;;;;;;24.12;81.93;100874.94;4994526;28;20229;-80
2022/09/06 07:57:33;;;;;;;5.97;2.60;;;;;;;24.08;82.41;100888.28;4994582;28;20205;-84
2022/09/06 08:00:02;;;;;;;3.78;2.83;;;;;;;23.99;83.47;100889.44;4994827;28;20213;-84
2022/09/06 08:02:29;;;;;;;2.78;2.55;;;;;;;24.00;83.15;100888.53;4960555;28;20205;-83
2022/09/06 08:04:56;;;;;;;4.65;2.70;;;;;;;24.02;84.23;100878.75;4995509;28;20293;-83
2022/09/06 08:07:24;;;;;;;7.80;3.60;;;;;;;24.35;83.94;100881.41;4994720;28;20229;-85
2022/09/06 08:09:51;;;;;;;3.30;3.00;;;;;;;24.00;83.65;100885.00;4995120;28;20209;-76
2022/09/06 08:12:18;;;;;;;3.00;2.80;;;;;;;24.14;82.65;100882.88;4994589;28;20233;-76
2022/09/06 08:14:44;;;;;;;3.00;2.60;;;;;;;23.99;83.48;100868.25;4976253;28;20229;-76
2022/09/06 08:17:13;;;;;;;4.95;3.25;;;;;;;24.25;84.06;100891.41;4994445;28;20209;-79
2022/09/06 08:19:39;;;;;;;3.20;2.70;;;;;;;23.92;86.05;100869.31;4995004;28;20205;-81
2022/09/06 08:22:06;;;;;;;6.80;2.85;;;;;;;23.79;87.80;100870.56;4994477;28;20216;-86
2022/09/06 08:24:34;;;;;;;3.38;3.15;;;;;;;23.76;92.55;100875.06;4994232;28;20616;-78
2022/09/06 08:27:01;;;;;;;4.28;3.45;;;;;;;23.99;94.06;100889.44;4994551;28;20201;-76
2022/09/06 08:29:28;;;;;;;3.50;3.20;;;;;;;23.93;93.99;100878.13;4960530;28;20209;-75
2022/09/06 08:31:55;;;;;;;5.47;3.35;;;;;;;23.82;95.01;100859.88;5004700;28;20232;-75
2022/09/06 08:34:23;;;;;;;3.58;3.28;;;;;;;23.76;95.30;100885.66;4997177;28;20212;-74
2022/09/06 08:36:50;;;;;;;3.92;3.35;;;;;;;24.37;95.42;100884.88;4994213;28;20214;-74
2022/09/06 08:39:17;;;;;;;8.85;3.88;;;;;;;24.54;92.63;100885.28;4959660;28;20205;-73
2022/09/06 08:41:51;;;;;;;8.32;4.45;;;;;;;25.04;87.12;100883.75;4994135;28;20201;-74
2022/09/06 08:44:22;;;;;;;10.68;3.75;;;;;;;25.50;86.76;100877.81;4994088;28;20223;-73
2022/09/06 08:46:56;;;;;;;5.15;4.32;;;;;;;25.62;80.00;100885.38;4985422;28;20263;-73
2022/09/06 08:49:27;;;;;;;3.85;3.55;;;;;;;25.87;78.67;100883.63;4989836;28;20288;-73
2022/09/06 08:52:15;;;;;;;5.15;4.18;;;;;;;26.43;79.54;100889.56;4993932;28;20213;-73
2022/09/06 08:54:51;;;;;;;6.10;4.82;;;;;;;26.69;74.57;100859.31;4988285;28;20236;-79
2022/09/06 08:57:31;;;;;;;8.05;4.82;;;;;;;26.88;70.20;100886.13;4991151;28;20676;-81
2022/09/06 09:00:05;;;;;;;14.63;4.80;;;;;;;26.71;68.28;100862.81;4992288;28;20205;-81
2022/09/06 09:02:45;;;;;;;9.93;4.72;;;;;;;27.17;68.42;100872.53;4991892;28;20224;-79
2022/09/06 09:05:21;;;;;;;6.60;5.10;;;;;;;27.27;66.78;100863.22;4993197;28;20208;-79
2022/09/06 09:07:55;;;;;;;9.07;5.47;;;;;;;26.92;68.16;100867.31;4992788;28;20232;-80
2022/09/06 09:10:27;;;;;;;4.43;4.07;;;;;;;26.68;68.52;100870.03;4992514;28;20202;-79
2022/09/06 09:12:54;;;;;;;8.18;4.90;;;;;;;25.68;73.64;100863.94;4993434;28;20205;-81
2022/09/06 09:15:22;;;;;;;4.57;4.18;;;;;;;25.84;73.54;100861.59;4990273;28;20245;-80
2022/09/06 09:17:51;;;;;;;7.82;4.07;;;;;;;25.31;75.66;100835.06;4989672;28;20209;-79
2022/09/06 09:20:21;;;;;;;4.65;4.15;;;;;;;25.49;76.61;100860.13;4991645;28;20201;-78
2022/09/06 09:22:48;;;;;;;4.25;3.85;;;;;;;25.42;76.75;100826.75;4959047;28;20675;-77
2022/09/06 09:25:20;;;;;;;7.18;3.65;;;;;;;25.73;75.50;100814.16;4993329;28;20666;-79
2022/09/06 09:27:49;;;;;;;4.32;3.88;;;;;;;25.45;73.59;100845.22;4992993;28;20197;-80
2022/09/06 09:30:16;;;;;;;4.53;4.13;;;;;;;25.79;74.31;100843.16;4993320;28;20216;-81
2022/09/06 09:32:44;;;;;;;3.72;3.42;;;;;;;25.73;73.52;100835.41;4991057;28;20205;-79
2022/09/06 09:35:32;;;;;;;5.15;3.85;;;;;;;25.72;73.78;100824.84;4993196;28;20240;-81
2022/09/06 09:38:06;;;;;;;10.60;3.78;;;;;;;25.92;71.70;100844.47;4992923;28;20198;-76
2022/09/06 09:40:38;;;;;;;3.45;3.17;;;;;;;25.95;70.85;100844.38;4993116;28;20552;-77
2022/09/06 09:43:13;;;;;;;5.63;3.38;;;;;;;25.71;73.09;100837.25;4992875;28;20209;-73
2022/09/06 09:45:39;;;;;;;7.03;3.67;;;;;;;25.94;71.05;100842.63;4992965;28;20213;-73
2022/09/06 09:48:23;;;;;;;5.15;3.88;;;;;;;26.36;68.39;100839.34;4989912;28;20212;-72
2022/09/06 09:50:51;;;;;;;6.80;4.07;;;;;;;26.30;69.39;100843.09;4987344;28;20264;-72
2022/09/06 09:53:21;;;;;;;5.78;4.07;;;;;;;26.10;70.47;100825.19;4992288;28;20202;-72
2022/09/06 09:55:49;;;;;;;7.05;4.20;;;;;;;26.15;68.86;100809.94;4988656;28;20271;-73
2022/09/06 09:58:23;;;;;;;5.22;3.88;;;;;;;26.04;70.31;100809.44;4952565;28;20197;-73
2022/09/06 10:01:09;;;;;;;5.15;3.53;;;;;;;26.07;66.39;100835.97;4992214;28;20208;-72
2022/09/06 10:03:36;;;;;;;4.15;3.78;;;;;;;26.18;64.37;100840.03;4979016;28;20198;-73
2022/09/06 10:06:07;;;;;;;3.83;3.53;;;;;;;26.24;63.49;100839.78;4985355;28;20220;-74
2022/09/06 10:08:41;;;;;;;4.65;3.85;;;;;;;26.33;61.66;100820.81;4993936;28;20231;-73
2022/09/06 10:11:11;;;;;;;5.90;3.83;;;;;;;26.43;61.77;100831.06;4991032;28;20201;-73
2022/09/06 10:13:40;;;;;;;4.38;3.70;;;;;;;26.31;63.18;100820.91;4989167;28;20213;-74
2022/09/06 10:16:08;;;;;;;5.50;3.08;;;;;;;26.42;59.64;100818.69;4990438;28;20284;-74
2022/09/06 10:18:37;;;;;;;4.60;3.65;;;;;;;26.25;58.08;100826.47;4991009;28;20216;-75
2022/09/06 10:21:08;;;;;;;5.18;3.60;;;;;;;25.34;59.30;100731.41;4990759;28;20212;-73
2022/09/06 10:23:53;;;;;;;4.60;3.70;;;;;;;25.65;60.02;100792.28;4984566;28;20197;-74
2022/09/06 10:26:27;;;;;;;5.60;3.50;;;;;;;25.34;59.59;100803.09;4989397;28;20217;-74
2022/09/06 10:29:01;;;;;;;4.00;3.60;;;;;;;25.31;60.88;100800.56;4990461;28;20672;-74
2022/09/06 10:31:54;;;;;;;4.65;3.47;;;;;;;25.50;61.56;100798.13;4989361;28;20672;-74
2022/09/06 10:34:53;;;;;;;5.07;3.60;;;;;;;25.68;60.27;100801.97;5004443;28;20680;-75
2022/09/06 10:37:32;;;;;;;8.45;3.60;;;;;;;25.51;62.75;100795.44;4912125;29;20223;-75
2022/09/06 10:40:06;;;;;;;3.92;3.47;;;;;;;25.01;63.58;100781.19;4912229;29;20212;-74
2022/09/06 10:42:42;;;;;;;5.28;3.95;;;;;;;25.12;63.05;100797.63;4909776;29;20211;-76
2022/09/06 10:45:44;;;;;;;4.43;3.72;;;;;;;25.37;60.74;100799.47;4912185;29;20215;-76
2022/09/06 10:48:17;;;;;;;3.92;3.00;;;;;;;25.28;58.77;100787.38;4851732;29;20217;-76
2022/09/06 10:50:51;;;;;;;4.00;3.60;;;;;;;25.56;58.86;100779.34;4856112;29;20206;-75
2022/09/06 10:53:32;;;;;;;3.90;3.28;;;;;;;25.74;57.90;100785.81;4856140;29;20350;-75
2022/09/06 10:56:06;;;;;;;3.83;3.05;;;;;;;25.79;54.85;100787.34;4855728;29;20325;-76
2022/09/06 10:58:38;;;;;;;5.00;4.18;;;;;;;25.85;56.52;100784.50;4855875;29;20680;-75
2022/09/06 11:01:07;;;;;;;4.68;4.20;;;;;;;25.61;55.28;100774.75;4855773;29;20719;-75
2022/09/06 11:03:40;;;;;;;5.88;3.90;;;;;;;25.57;56.18;100778.44;4855993;29;20330;-75
2022/09/06 11:06:09;;;;;;;4.97;3.88;;;;;;;25.80;55.47;100778.47;4855304;29;20210;-76
2022/09/06 11:08:46;;;;;;;7.15;3.67;;;;;;;25.71;54.82;100773.50;4855508;29;20242;-76
2022/09/06 11:11:19;;;;;;;5.65;3.22;;;;;;;25.82;52.94;100778.44;4855515;29;20221;-76
2022/09/06 11:13:46;;;;;;;6.32;3.60;;;;;;;25.77;54.64;100783.03;4886824;29;20210;-76
2022/09/06 11:16:19;;;;;;;5.53;3.30;;;;;;;26.07;53.73;100779.25;4949634;29;20233;-75
2022/09/06 11:18:50;;;;;;;5.43;3.33;;;;;;;26.29;53.81;100779.34;4949720;29;20218;-76
2022/09/06 11:21:51;;;;;;;3.42;3.22;;;;;;;26.34;53.46;100783.53;4949131;29;20202;-76
2022/09/06 11:24:28;;;;;;;7.05;4.03;;;;;;;26.42;53.62;100775.28;4864191;29;20208;-76
2022/09/06 11:27:04;;;;;;;3.80;3.50;;;;;;;26.42;52.38;100783.25;4911195;29;20636;-75
2022/09/06 11:29:33;;;;;;;6.40;5.05;;;;;;;26.22;52.08;100764.56;4906612;29;20208;-76
2022/09/06 11:32:01;;;;;;;9.55;4.90;;;;;;;26.43;52.23;100771.69;4911041;29;20208;-76
2022/09/06 11:34:31;;;;;;;9.82;5.15;;;;;;;26.52;52.25;100761.56;4911108;29;20223;-76